createdAt,value
2022-08-26T00:01:53.787Z,94120.16
2022-08-26T00:04:22.101Z,94113.53
2022-08-26T00:06:49.042Z,94113.53
2022-08-26T00:09:16.157Z,94100.31
2022-08-26T00:11:45.380Z,94107.69
2022-08-26T00:14:13.944Z,94107.31
2022-08-26T00:16:47.089Z,94108.09
2022-08-26T00:19:15.312Z,94108.88
2022-08-26T00:21:42.049Z,94108.09
2022-08-26T00:24:08.865Z,94108.09
2022-08-26T00:26:36.245Z,94099.16
2022-08-26T00:29:03.097Z,94105.00
2022-08-26T00:31:32.005Z,94100.72
2022-08-26T00:33:59.200Z,94109.25
2022-08-26T00:36:29.702Z,94109.63
2022-08-26T00:38:57.697Z,94103.44
2022-08-26T00:41:24.424Z,94104.19
2022-08-26T00:43:51.456Z,94101.09
2022-08-26T00:46:25.795Z,94098.75
2022-08-26T00:48:58.189Z,94101.09
2022-08-26T00:51:29.868Z,94099.53
2022-08-26T00:54:06.602Z,94098.34
2022-08-26T00:56:43.579Z,94092.50
2022-08-26T00:59:13.154Z,94090.16
2022-08-26T01:01:42.575Z,94093.28
2022-08-26T01:04:15.672Z,94093.28
2022-08-26T01:06:42.654Z,94094.03
2022-08-26T01:09:11.870Z,94094.81
2022-08-26T01:11:39.235Z,94087.00
2022-08-26T01:14:07.058Z,94082.31
2022-08-26T01:16:35.626Z,94088.16
2022-08-26T01:19:28.756Z,94093.59
2022-08-26T01:22:05.334Z,94085.78
2022-08-26T01:24:32.314Z,94080.34
2022-08-26T01:27:06.657Z,94085.03
2022-08-26T01:29:38.108Z,94086.97
2022-08-26T01:32:07.081Z,94083.09
2022-08-26T01:34:37.549Z,94092.78
2022-08-26T01:37:15.605Z,94094.72
2022-08-26T01:39:44.369Z,94097.81
2022-08-26T01:42:14.662Z,94094.34
2022-08-26T01:44:46.247Z,94083.06
2022-08-26T01:47:17.991Z,94091.63
2022-08-26T01:49:48.279Z,94078.81
2022-08-26T01:52:23.493Z,94093.97
2022-08-26T01:54:57.414Z,94076.50
2022-08-26T01:57:25.384Z,94071.41
2022-08-26T01:59:56.329Z,94088.53
2022-08-26T02:02:24.594Z,94093.19
2022-08-26T02:04:58.387Z,94088.16
2022-08-26T02:07:26.851Z,94099.41
2022-08-26T02:09:54.688Z,94089.31
2022-08-26T02:12:21.582Z,94092.00
2022-08-26T02:15:05.731Z,94098.56
2022-08-26T02:17:37.886Z,94086.88
2022-08-26T02:20:06.506Z,94088.84
2022-08-26T02:22:41.355Z,94087.31
2022-08-26T02:25:25.170Z,94091.16
2022-08-26T02:27:52.858Z,94094.28
2022-08-26T02:30:24.328Z,94092.34
2022-08-26T02:32:53.186Z,94095.06
2022-08-26T02:35:22.393Z,94080.31
2022-08-26T02:37:50.441Z,94088.47
2022-08-26T02:40:21.572Z,94073.28
2022-08-26T02:42:48.901Z,94083.78
2022-08-26T02:45:16.758Z,94073.31
2022-08-26T02:47:51.621Z,94086.50
2022-08-26T02:50:19.783Z,94066.69
2022-08-26T02:52:46.554Z,94069.78
2022-08-26T02:55:13.247Z,94066.69
2022-08-26T02:57:39.929Z,94072.16
2022-08-26T03:00:09.165Z,94076.44
2022-08-26T03:02:35.817Z,94068.28
2022-08-26T03:05:02.976Z,94055.06
2022-08-26T03:07:30.376Z,94069.44
2022-08-26T03:09:58.769Z,94067.06
2022-08-26T03:12:25.786Z,94062.03
2022-08-26T03:14:52.954Z,94063.56
2022-08-26T03:17:19.645Z,94062.81
2022-08-26T03:19:46.314Z,94070.19
2022-08-26T03:22:14.527Z,94063.97
2022-08-26T03:24:46.053Z,94064.31
2022-08-26T03:27:13.387Z,94071.31
2022-08-26T03:30:00.226Z,94071.34
2022-08-26T03:32:28.098Z,94062.81
2022-08-26T03:34:56.517Z,94068.22
2022-08-26T03:37:23.458Z,94073.69
2022-08-26T03:39:50.277Z,94053.88
2022-08-26T03:42:17.732Z,94065.94
2022-08-26T03:44:48.897Z,94063.19
2022-08-26T03:47:15.914Z,94058.13
2022-08-26T03:49:42.970Z,94043.41
2022-08-26T03:52:10.602Z,94041.09
2022-08-26T03:54:37.451Z,94060.47
2022-08-26T03:57:04.381Z,94052.31
2022-08-26T03:59:31.923Z,94051.56
2022-08-26T04:01:58.793Z,94050.41
2022-08-26T04:04:25.887Z,94055.03
2022-08-26T04:06:59.592Z,94060.47
2022-08-26T04:09:27.665Z,94051.97
2022-08-26T04:11:55.634Z,94056.97
2022-08-26T04:14:26.191Z,94066.69
2022-08-26T04:16:55.474Z,94054.25
2022-08-26T04:19:23.821Z,94062.78
2022-08-26T04:21:53.304Z,94060.03
2022-08-26T04:24:22.682Z,94058.09
2022-08-26T04:26:49.779Z,94056.50
2022-08-26T04:29:19.636Z,94051.06
2022-08-26T04:31:50.242Z,94063.84
2022-08-26T04:34:24.274Z,94057.63
2022-08-26T04:36:54.050Z,94063.81
2022-08-26T04:39:20.861Z,94054.88
2022-08-26T04:41:48.682Z,94056.41
2022-08-26T04:44:18.049Z,94055.28
2022-08-26T04:46:44.864Z,94049.06
2022-08-26T04:49:11.968Z,94052.53
2022-08-26T04:51:38.833Z,94055.72
2022-08-26T04:54:07.213Z,94049.50
2022-08-26T04:56:40.271Z,94056.13
2022-08-26T04:59:16.859Z,94051.91
2022-08-26T05:01:49.681Z,94057.34
2022-08-26T05:04:18.851Z,94053.06
2022-08-26T05:06:46.962Z,94054.22
2022-08-26T05:09:15.306Z,94063.16
2022-08-26T05:11:42.190Z,94053.84
2022-08-26T05:14:09.725Z,94055.78
2022-08-26T05:16:36.709Z,94061.25
2022-08-26T05:19:03.687Z,94060.09
2022-08-26T05:21:31.379Z,94051.19
2022-08-26T05:23:58.512Z,94058.53
2022-08-26T05:26:28.418Z,94062.47
2022-08-26T05:28:56.703Z,94072.94
2022-08-26T05:31:26.691Z,94066.00
2022-08-26T05:33:53.933Z,94069.94
2022-08-26T05:36:23.120Z,94072.69
2022-08-26T05:38:50.128Z,94066.91
2022-08-26T05:41:18.603Z,94068.47
2022-08-26T05:43:45.761Z,94069.22
2022-08-26T05:46:13.477Z,94066.50
2022-08-26T05:48:44.213Z,94058.38
2022-08-26T05:51:12.632Z,94083.59
2022-08-26T05:53:40.979Z,94087.88
2022-08-26T05:56:12.059Z,94088.63
2022-08-26T05:58:40.636Z,94093.28
2022-08-26T06:01:12.372Z,94095.94
2022-08-26T06:03:42.631Z,94097.03
2022-08-26T06:06:15.669Z,94093.44
2022-08-26T06:08:47.453Z,94085.56
2022-08-26T06:11:19.079Z,94087.09
2022-08-26T06:13:46.867Z,94093.72
2022-08-26T06:16:17.931Z,94096.47
2022-08-26T06:18:46.565Z,94106.19
2022-08-26T06:21:19.242Z,94102.88
2022-08-26T06:24:06.723Z,94103.09
2022-08-26T06:26:35.705Z,94100.38
2022-08-26T06:29:05.399Z,94108.06
2022-08-26T06:31:34.779Z,94114.34
2022-08-26T06:34:03.701Z,94111.09
2022-08-26T06:36:34.929Z,94115.94
2022-08-26T06:39:10.132Z,94117.84
2022-08-26T06:41:42.775Z,94117.78
2022-08-26T06:44:16.961Z,94118.81
2022-08-26T06:46:44.270Z,94115.69
2022-08-26T06:49:12.530Z,94110.66
2022-08-26T06:51:40.944Z,94113.03
2022-08-26T06:54:08.866Z,94110.47
2022-08-26T06:56:42.839Z,94105.63
2022-08-26T06:59:11.414Z,94123.91
2022-08-26T07:01:44.931Z,94122.44
2022-08-26T07:04:15.617Z,94118.16
2022-08-26T07:06:52.373Z,94117.69
2022-08-26T07:09:24.790Z,94124.97
2022-08-26T07:11:52.794Z,94113.13
2022-08-26T07:14:21.481Z,94117.91
2022-08-26T07:16:50.476Z,94116.19
2022-08-26T07:19:18.995Z,94112.13
2022-08-26T07:21:57.535Z,94114.94
2022-08-26T07:24:24.299Z,94100.16
2022-08-26T07:26:59.543Z,94124.41
2022-08-26T07:29:26.307Z,94114.91
2022-08-26T07:31:53.605Z,94118.72
2022-08-26T07:34:24.162Z,94106.69
2022-08-26T07:36:55.277Z,94120.09
2022-08-26T07:39:22.557Z,94128.34
2022-08-26T07:41:49.637Z,94121.50
2022-08-26T07:44:16.778Z,94120.97
2022-08-26T07:46:44.229Z,94123.09
2022-08-26T07:49:13.673Z,94123.28
2022-08-26T07:51:41.467Z,94123.22
2022-08-26T07:54:08.177Z,94115.22
2022-08-26T07:56:35.379Z,94119.00
2022-08-26T07:59:04.003Z,94123.13
2022-08-26T08:01:41.456Z,94115.38
2022-08-26T08:04:14.109Z,94126.09
2022-08-26T08:06:41.787Z,94116.59
2022-08-26T08:09:12.400Z,94116.84
2022-08-26T08:11:39.222Z,94114.19
2022-08-26T08:14:08.565Z,94103.31
2022-08-26T08:16:37.259Z,94110.06
2022-08-26T08:19:05.852Z,94103.34
2022-08-26T08:21:32.611Z,94114.13
2022-08-26T08:23:59.897Z,94105.16
2022-08-26T08:26:27.208Z,94115.81
2022-08-26T08:28:55.825Z,94118.00
2022-08-26T08:31:56.157Z,94122.78
2022-08-26T08:34:19.316Z,94111.81
2022-08-26T08:36:48.741Z,94115.31
2022-08-26T08:39:17.186Z,94104.81
2022-08-26T08:42:06.037Z,94115.66
2022-08-26T08:44:33.823Z,94121.63
2022-08-26T08:47:20.759Z,94111.81
2022-08-26T08:49:48.098Z,94114.34
2022-08-26T08:52:25.540Z,94109.59
2022-08-26T08:54:54.452Z,94108.56
2022-08-26T08:57:31.933Z,94112.81
2022-08-26T09:00:11.950Z,94103.06
2022-08-26T09:02:46.371Z,94099.09
2022-08-26T09:05:28.070Z,94102.63
2022-08-26T09:08:06.596Z,94108.31
2022-08-26T09:10:39.804Z,94111.16
2022-08-26T09:13:25.404Z,94102.44
2022-08-26T09:16:20.281Z,94098.88
2022-08-26T09:18:55.062Z,94104.00
2022-08-26T09:21:25.279Z,94106.16
2022-08-26T09:23:55.714Z,94105.03
2022-08-26T09:26:29.177Z,94094.44
2022-08-26T09:29:08.866Z,94098.56
2022-08-26T09:31:39.196Z,94095.41
2022-08-26T09:34:22.783Z,94095.53
2022-08-26T09:36:58.600Z,94088.59
2022-08-26T09:39:28.210Z,94089.09
2022-08-26T09:42:02.918Z,94083.16
2022-08-26T09:44:29.897Z,94083.41
2022-08-26T09:47:02.015Z,94087.41
2022-08-26T09:49:39.844Z,94082.06
2022-08-26T09:52:17.632Z,94084.06
2022-08-26T09:54:57.268Z,94074.81
2022-08-26T09:57:29.071Z,94082.44
2022-08-26T09:59:56.317Z,94073.00
2022-08-26T10:02:32.203Z,94072.81
2022-08-26T10:05:04.453Z,94073.38
2022-08-26T10:07:50.870Z,94070.03
2022-08-26T10:10:20.057Z,94051.69
2022-08-26T10:12:58.889Z,94051.09
2022-08-26T10:15:27.827Z,94053.09
2022-08-26T10:18:24.760Z,94048.59
2022-08-26T10:21:09.754Z,94045.38
2022-08-26T10:23:58.269Z,94050.66
2022-08-26T10:26:28.209Z,94039.59
2022-08-26T10:29:08.914Z,94033.63
2022-08-26T10:31:41.045Z,94036.22
2022-08-26T10:34:12.529Z,94034.19
2022-08-26T10:37:14.093Z,94031.66
2022-08-26T10:40:07.635Z,94016.50
2022-08-26T10:42:39.186Z,94021.63
2022-08-26T10:45:19.811Z,94022.25
2022-08-26T10:47:54.224Z,94021.91
2022-08-26T10:50:37.302Z,94024.72
2022-08-26T10:53:44.297Z,94017.59
2022-08-26T10:56:29.516Z,94024.81
2022-08-26T10:59:03.915Z,94014.66
2022-08-26T11:01:43.287Z,94013.00
2022-08-26T11:04:31.687Z,94010.34
2022-08-26T11:07:39.684Z,94003.78
2022-08-26T11:10:12.922Z,94003.53
2022-08-26T11:12:39.544Z,93993.81
2022-08-26T11:15:34.250Z,93992.16
2022-08-26T11:18:04.257Z,94001.50
2022-08-26T11:20:37.046Z,93993.75
2022-08-26T11:23:24.118Z,94001.38
2022-08-26T11:25:57.047Z,93990.41
2022-08-26T11:28:44.791Z,93993.31
2022-08-26T11:31:31.783Z,93990.38
2022-08-26T11:34:03.563Z,93988.72
2022-08-26T11:36:55.260Z,93996.84
2022-08-26T11:39:29.456Z,93996.50
2022-08-26T11:42:23.677Z,93981.50
2022-08-26T11:44:57.951Z,93989.75
2022-08-26T11:47:30.583Z,93976.34
2022-08-26T11:50:13.402Z,93981.97
2022-08-26T11:52:40.118Z,93964.38
2022-08-26T11:55:12.124Z,93970.03
2022-08-26T11:57:46.059Z,93968.22
2022-08-26T12:00:26.545Z,93982.56
2022-08-26T12:02:55.619Z,93987.78
2022-08-26T12:05:38.295Z,93994.38
2022-08-26T12:08:11.375Z,93995.38
2022-08-26T12:10:38.423Z,93985.00
2022-08-26T12:13:07.682Z,93984.69
2022-08-26T12:15:35.826Z,93987.31
2022-08-26T12:18:29.005Z,93991.69
2022-08-26T12:20:58.687Z,93991.56
2022-08-26T12:23:36.807Z,93986.44
2022-08-26T12:26:29.489Z,93993.16
2022-08-26T12:28:56.135Z,93995.69
2022-08-26T12:31:35.085Z,93980.94
2022-08-26T12:34:05.943Z,93977.03
2022-08-26T12:36:37.810Z,93978.34
2022-08-26T12:39:08.751Z,93970.25
2022-08-26T12:41:55.749Z,93970.06
2022-08-26T12:44:32.025Z,93969.34
2022-08-26T12:47:20.428Z,93955.38
2022-08-26T12:50:01.129Z,93960.91
2022-08-26T12:52:30.408Z,93951.91
2022-08-26T12:55:02.514Z,93959.94
2022-08-26T12:57:36.030Z,93967.72
2022-08-26T13:00:35.774Z,93964.53
2022-08-26T13:03:03.548Z,93972.38
2022-08-26T13:05:33.990Z,93971.81
2022-08-26T13:08:25.878Z,93971.78
2022-08-26T13:11:10.337Z,93965.16
2022-08-26T13:13:37.525Z,93966.00
2022-08-26T13:16:05.635Z,93982.00
2022-08-26T13:18:32.705Z,93986.13
2022-08-26T13:20:59.474Z,93990.16
2022-08-26T13:23:26.230Z,93982.66
2022-08-26T13:25:52.929Z,93993.06
2022-08-26T13:28:19.753Z,93993.19
2022-08-26T13:30:48.121Z,93997.53
2022-08-26T13:33:16.757Z,93990.72
2022-08-26T13:35:45.348Z,93993.66
2022-08-26T13:38:20.588Z,93987.22
2022-08-26T13:41:00.729Z,93988.63
2022-08-26T13:43:27.729Z,93974.09
2022-08-26T13:45:54.868Z,93960.38
2022-08-26T13:48:23.591Z,93960.16
2022-08-26T13:50:50.717Z,93967.09
2022-08-26T13:53:18.801Z,93963.13
2022-08-26T13:55:45.998Z,93959.56
2022-08-26T13:58:13.672Z,93960.66
2022-08-26T14:00:41.383Z,93957.13
2022-08-26T14:03:13.090Z,93947.53
2022-08-26T14:05:40.363Z,93944.16
2022-08-26T14:08:07.496Z,93942.81
2022-08-26T14:10:34.616Z,93942.63
2022-08-26T14:13:01.393Z,93932.00
2022-08-26T14:15:29.226Z,93943.56
2022-08-26T14:17:56.056Z,93934.97
2022-08-26T14:20:27.225Z,93927.06
2022-08-26T14:23:13.138Z,93929.69
2022-08-26T14:25:41.404Z,93930.53
2022-08-26T14:28:08.221Z,93919.94
2022-08-26T14:30:35.407Z,93923.09
2022-08-26T14:33:02.218Z,93913.63
2022-08-26T14:35:30.705Z,93913.63
2022-08-26T14:37:58.132Z,93918.41
2022-08-26T14:40:29.523Z,93911.09
2022-08-26T14:42:58.872Z,93901.22
2022-08-26T14:45:27.900Z,93896.72
2022-08-26T14:47:56.743Z,93896.72
2022-08-26T14:50:26.132Z,93897.13
2022-08-26T14:53:11.178Z,93902.47
2022-08-26T14:55:40.703Z,93895.75
2022-08-26T14:58:07.651Z,93896.34
2022-08-26T15:00:34.844Z,93901.28
2022-08-26T15:03:01.959Z,93900.88
2022-08-26T15:05:28.852Z,93906.75
2022-08-26T15:07:55.700Z,93911.66
2022-08-26T15:10:22.971Z,93914.63
2022-08-26T15:12:49.804Z,93916.47
2022-08-26T15:15:18.600Z,93921.00
2022-08-26T15:17:45.537Z,93924.81
2022-08-26T15:20:12.828Z,93931.78
2022-08-26T15:22:40.039Z,93931.78
2022-08-26T15:25:07.639Z,93927.63
2022-08-26T15:27:34.365Z,93930.00
2022-08-26T15:30:13.769Z,93923.34
2022-08-26T15:32:40.555Z,93919.75
2022-08-26T15:35:09.227Z,93916.66
2022-08-26T15:37:36.318Z,93917.03
2022-08-26T15:40:03.903Z,93912.75
2022-08-26T15:42:30.746Z,93909.66
2022-08-26T15:44:57.523Z,93902.31
2022-08-26T15:47:24.503Z,93899.56
2022-08-26T15:49:51.162Z,93899.63
2022-08-26T15:52:19.551Z,93891.47
2022-08-26T15:54:46.229Z,93900.09
2022-08-26T15:57:15.314Z,93892.84
2022-08-26T15:59:43.263Z,93891.03
2022-08-26T16:02:10.641Z,93890.13
2022-08-26T16:04:37.343Z,93890.47
2022-08-26T16:07:04.414Z,93900.66
2022-08-26T16:09:31.222Z,93901.47
2022-08-26T16:11:58.152Z,93893.84
2022-08-26T16:14:25.715Z,93902.88
2022-08-26T16:16:52.566Z,93906.44
2022-08-26T16:19:19.398Z,93911.50
2022-08-26T16:21:46.498Z,93911.94
2022-08-26T16:24:14.164Z,93919.34
2022-08-26T16:26:42.552Z,93913.06
2022-08-26T16:29:12.374Z,93904.84
2022-08-26T16:31:39.369Z,93913.41
2022-08-26T16:34:07.331Z,93917.34
2022-08-26T16:36:34.933Z,93913.88
2022-08-26T16:39:01.783Z,93911.28
2022-08-26T16:41:30.871Z,93913.22
2022-08-26T16:43:58.112Z,93903.94
2022-08-26T16:46:26.334Z,93900.97
2022-08-26T16:48:54.593Z,93910.91
2022-08-26T16:51:23.086Z,93908.22
2022-08-26T16:53:50.830Z,93902.47
2022-08-26T16:56:24.120Z,93908.75
2022-08-26T16:59:00.608Z,93917.00
2022-08-26T17:01:27.374Z,93914.34
2022-08-26T17:03:54.358Z,93907.81
2022-08-26T17:06:21.084Z,93907.13
2022-08-26T17:08:47.948Z,93911.88
2022-08-26T17:11:15.329Z,93917.06
2022-08-26T17:13:42.172Z,93915.50
2022-08-26T17:16:10.950Z,93915.91
2022-08-26T17:18:38.206Z,93910.88
2022-08-26T17:21:10.234Z,93913.25
2022-08-26T17:23:38.036Z,93907.06
2022-08-26T17:26:05.368Z,93912.16
2022-08-26T17:28:32.315Z,93913.75
2022-08-26T17:31:00.323Z,93920.47
2022-08-26T17:33:28.674Z,93930.25
2022-08-26T17:35:56.050Z,93931.44
2022-08-26T17:38:22.914Z,93935.38
2022-08-26T17:40:50.180Z,93951.34
2022-08-26T17:43:17.860Z,93957.59
2022-08-26T17:45:44.652Z,93958.44
2022-08-26T17:48:12.234Z,93950.66
2022-08-26T17:50:41.300Z,93961.63
2022-08-26T17:53:08.461Z,93960.97
2022-08-26T17:55:41.862Z,93959.47
2022-08-26T17:58:12.254Z,93979.03
2022-08-26T18:00:44.745Z,93993.06
2022-08-26T18:03:11.982Z,93993.06
2022-08-26T18:05:38.745Z,93987.59
2022-08-26T18:08:05.545Z,93977.81
2022-08-26T18:10:32.620Z,93977.72
2022-08-26T18:12:59.399Z,93976.81
2022-08-26T18:15:26.144Z,93977.22
2022-08-26T18:17:53.362Z,93994.09
2022-08-26T18:20:20.703Z,93998.44
2022-08-26T18:22:48.097Z,94005.56
2022-08-26T18:25:16.620Z,94003.38
2022-08-26T18:27:44.588Z,94003.44
2022-08-26T18:30:16.796Z,94002.78
2022-08-26T18:32:44.257Z,93999.09
2022-08-26T18:35:11.955Z,94022.69
2022-08-26T18:37:39.082Z,94027.63
2022-08-26T18:40:08.587Z,94032.84
2022-08-26T18:42:35.485Z,94026.28
2022-08-26T18:45:03.162Z,94031.75
2022-08-26T18:47:31.224Z,94044.97
2022-08-26T18:49:57.941Z,94058.22
2022-08-26T18:52:24.858Z,94069.88
2022-08-26T18:54:51.620Z,94068.31
2022-08-26T18:57:18.332Z,94069.88
2022-08-26T18:59:45.015Z,94076.88
2022-08-26T19:02:11.970Z,94071.47
2022-08-26T19:04:39.202Z,94082.75
2022-08-26T19:07:06.457Z,94076.16
2022-08-26T19:09:33.774Z,94080.06
2022-08-26T19:12:01.639Z,94076.56
2022-08-26T19:14:28.676Z,94071.50
2022-08-26T19:16:55.586Z,94078.50
2022-08-26T19:19:25.629Z,94080.03
2022-08-26T19:21:52.644Z,94070.34
2022-08-26T19:24:20.316Z,94079.28
2022-08-26T19:26:59.102Z,94090.19
2022-08-26T19:29:29.719Z,94080.06
2022-08-26T19:31:56.709Z,94080.06
2022-08-26T19:34:24.157Z,94085.13
2022-08-26T19:36:53.247Z,94082.78
2022-08-26T19:39:21.145Z,94080.50
2022-08-26T19:41:47.975Z,94076.22
2022-08-26T19:44:53.076Z,94086.72
2022-08-26T19:47:19.791Z,94075.44
2022-08-26T19:49:46.473Z,94066.50
2022-08-26T19:52:13.974Z,94070.78
2022-08-26T19:54:40.999Z,94060.69
2022-08-26T19:57:08.084Z,94057.56
2022-08-26T19:59:36.260Z,94057.97
2022-08-26T20:02:08.484Z,94049.44
2022-08-26T20:04:37.087Z,94046.72
2022-08-26T20:07:05.631Z,94050.59
2022-08-26T20:09:34.147Z,94040.50
2022-08-26T20:12:02.459Z,94034.66
2022-08-26T20:14:30.003Z,94027.28
2022-08-26T20:16:57.317Z,94026.13
2022-08-26T20:19:42.788Z,94019.13
2022-08-26T20:22:10.388Z,94015.63
2022-08-26T20:24:37.200Z,94011.34
2022-08-26T20:27:07.752Z,94018.72
2022-08-26T20:29:35.946Z,94007.09
2022-08-26T20:32:06.107Z,94013.31
2022-08-26T20:34:33.057Z,94010.59
2022-08-26T20:37:00.055Z,94015.66
2022-08-26T20:39:29.576Z,94013.72
2022-08-26T20:41:59.391Z,94007.50
2022-08-26T20:44:26.345Z,94023.03
2022-08-26T20:46:53.212Z,94015.66
2022-08-26T20:49:19.945Z,94023.44
2022-08-26T20:51:51.463Z,94021.84
2022-08-26T20:54:22.976Z,94025.72
2022-08-26T20:56:52.020Z,94028.06
2022-08-26T20:59:21.088Z,94021.06
2022-08-26T21:01:48.577Z,94043.19
2022-08-26T21:04:18.693Z,94040.47
2022-08-26T21:06:52.353Z,94038.53
2022-08-26T21:09:22.402Z,94047.84
2022-08-26T21:11:49.713Z,94045.91
2022-08-26T21:14:17.440Z,94055.19
2022-08-26T21:16:45.285Z,94047.44
2022-08-26T21:19:15.152Z,94038.09
2022-08-26T21:21:42.293Z,94039.25
2022-08-26T21:24:09.299Z,94038.88
2022-08-26T21:26:36.406Z,94038.50
2022-08-26T21:29:04.149Z,94035.38
2022-08-26T21:31:32.138Z,94039.66
2022-08-26T21:33:59.369Z,94051.66
2022-08-26T21:36:26.570Z,94045.06
2022-08-26T21:38:56.134Z,94054.34
2022-08-26T21:41:23.118Z,94052.00
2022-08-26T21:43:51.540Z,94056.28
2022-08-26T21:46:22.195Z,94050.47
2022-08-26T21:48:58.341Z,94060.16
2022-08-26T21:51:29.631Z,94060.53
2022-08-26T21:53:57.771Z,94064.38
2022-08-26T21:56:27.364Z,94057.38
2022-08-26T21:58:55.772Z,94059.31
2022-08-26T22:01:24.402Z,94068.19
2022-08-26T22:03:52.690Z,94058.13
2022-08-26T22:06:22.985Z,94066.69
2022-08-26T22:08:50.061Z,94068.25
2022-08-26T22:11:18.713Z,94070.97
2022-08-26T22:13:46.775Z,94067.47
2022-08-26T22:16:14.418Z,94070.22
2022-08-26T22:18:43.864Z,94071.78
2022-08-26T22:21:14.325Z,94075.66
2022-08-26T22:23:41.439Z,94071.00
2022-08-26T22:26:10.000Z,94079.16
2022-08-26T22:28:37.452Z,94084.19
2022-08-26T22:31:04.269Z,94081.09
2022-08-26T22:33:30.999Z,94081.06
2022-08-26T22:35:57.712Z,94086.06
2022-08-26T22:38:24.829Z,94076.75
2022-08-26T22:40:56.107Z,94082.97
2022-08-26T22:43:28.867Z,94079.84
2022-08-26T22:45:56.454Z,94076.75
2022-08-26T22:48:25.081Z,94085.28
2022-08-26T22:51:00.006Z,94071.31
2022-08-26T22:53:27.490Z,94070.97
2022-08-26T22:55:54.475Z,94068.56
2022-08-26T22:58:28.032Z,94080.16
2022-08-26T23:00:59.365Z,94091.78
2022-08-26T23:03:27.006Z,94092.16
2022-08-26T23:05:55.530Z,94091.75
2022-08-26T23:08:23.469Z,94088.25
2022-08-26T23:10:51.454Z,94087.88
2022-08-26T23:13:19.872Z,94083.22
2022-08-26T23:15:46.786Z,94085.53
2022-08-26T23:18:15.295Z,94083.53
2022-08-26T23:20:42.112Z,94091.22
2022-08-26T23:23:09.482Z,94088.47
2022-08-26T23:25:36.274Z,94083.38
2022-08-26T23:28:03.529Z,94087.97
2022-08-26T23:30:32.256Z,94087.91
2022-08-26T23:32:59.276Z,94096.84
2022-08-26T23:35:26.805Z,94089.84
2022-08-26T23:37:53.783Z,94088.66
2022-08-26T23:40:28.030Z,94088.69
2022-08-26T23:42:56.291Z,94088.66
2022-08-26T23:45:24.227Z,94091.78
2022-08-26T23:47:51.196Z,94092.16
2022-08-26T23:50:20.005Z,94097.19
2022-08-26T23:53:05.749Z,94099.13
2022-08-26T23:55:37.385Z,94100.38
2022-08-26T23:58:05.157Z,94101.94
